sensor_id;sensor_type;location;lat;lon;timestamp;temperature;humidity
52295;DHT22;38243;53.212;6.574;2022-09-09T00:04:32;20.60;99.90
52295;DHT22;38243;53.212;6.574;2022-09-09T00:09:25;20.60;99.90
52295;DHT22;38243;53.212;6.574;2022-09-09T00:11:52;20.60;99.90
52295;DHT22;38243;53.212;6.574;2022-09-09T00:16:56;20.60;99.90
52295;DHT22;38243;53.212;6.574;2022-09-09T00:19:31;20.50;99.90
52295;DHT22;38243;53.212;6.574;2022-09-09T00:22:15;20.50;99.90
52295;DHT22;38243;53.212;6.574;2022-09-09T00:24:49;20.60;99.90
52295;DHT22;38243;53.212;6.574;2022-09-09T00:27:19;20.50;99.90
52295;DHT22;38243;53.212;6.574;2022-09-09T00:29:51;20.50;99.90
52295;DHT22;38243;53.212;6.574;2022-09-09T00:32:19;20.50;99.90
52295;DHT22;38243;53.212;6.574;2022-09-09T00:37:14;20.50;99.90
52295;DHT22;38243;53.212;6.574;2022-09-09T00:39:46;20.50;99.90
52295;DHT22;38243;53.212;6.574;2022-09-09T00:44:52;20.40;99.90
52295;DHT22;38243;53.212;6.574;2022-09-09T00:50:02;20.40;99.90
52295;DHT22;38243;53.212;6.574;2022-09-09T00:57:41;20.40;99.90
52295;DHT22;38243;53.212;6.574;2022-09-09T01:05:41;20.40;99.90
52295;DHT22;38243;53.212;6.574;2022-09-09T01:08:35;20.40;99.90
52295;DHT22;38243;53.212;6.574;2022-09-09T01:10:55;20.40;99.90
52295;DHT22;38243;53.212;6.574;2022-09-09T01:13:28;20.30;99.90
52295;DHT22;38243;53.212;6.574;2022-09-09T01:15:56;20.30;99.90
52295;DHT22;38243;53.212;6.574;2022-09-09T01:18:23;20.30;99.90
52295;DHT22;38243;53.212;6.574;2022-09-09T01:23:38;20.30;99.90
52295;DHT22;38243;53.212;6.574;2022-09-09T01:28:34;20.30;99.90
52295;DHT22;38243;53.212;6.574;2022-09-09T01:31:00;20.30;99.90
52295;DHT22;38243;53.212;6.574;2022-09-09T01:33:27;20.50;99.90
52295;DHT22;38243;53.212;6.574;2022-09-09T01:38:26;20.30;99.90
52295;DHT22;38243;53.212;6.574;2022-09-09T01:40:53;20.30;99.90
52295;DHT22;38243;53.212;6.574;2022-09-09T01:43:22;20.30;99.90
52295;DHT22;38243;53.212;6.574;2022-09-09T01:45:49;20.20;99.90
52295;DHT22;38243;53.212;6.574;2022-09-09T01:48:16;20.30;99.90
52295;DHT22;38243;53.212;6.574;2022-09-09T01:50:43;20.20;99.90
52295;DHT22;38243;53.212;6.574;2022-09-09T01:53:08;20.20;99.90
52295;DHT22;38243;53.212;6.574;2022-09-09T01:55:38;20.20;99.90
52295;DHT22;38243;53.212;6.574;2022-09-09T02:00:43;20.20;99.90
52295;DHT22;38243;53.212;6.574;2022-09-09T02:03:21;20.20;99.90
52295;DHT22;38243;53.212;6.574;2022-09-09T02:05:52;20.10;99.90
52295;DHT22;38243;53.212;6.574;2022-09-09T02:09:03;20.10;99.90
52295;DHT22;38243;53.212;6.574;2022-09-09T02:11:11;20.10;99.90
52295;DHT22;38243;53.212;6.574;2022-09-09T02:13:38;20.10;99.90
52295;DHT22;38243;53.212;6.574;2022-09-09T02:18:33;20.10;99.90
52295;DHT22;38243;53.212;6.574;2022-09-09T02:21:00;20.10;99.90
52295;DHT22;38243;53.212;6.574;2022-09-09T02:23:26;20.10;99.90
52295;DHT22;38243;53.212;6.574;2022-09-09T02:25:53;20.10;99.90
52295;DHT22;38243;53.212;6.574;2022-09-09T02:28:20;20.00;99.90
52295;DHT22;38243;53.212;6.574;2022-09-09T02:30:49;20.00;99.90
52295;DHT22;38243;53.212;6.574;2022-09-09T02:33:24;19.90;99.90
52295;DHT22;38243;53.212;6.574;2022-09-09T02:35:51;20.00;99.90
52295;DHT22;38243;53.212;6.574;2022-09-09T02:38:17;20.00;99.90
52295;DHT22;38243;53.212;6.574;2022-09-09T02:40:45;20.00;99.90
52295;DHT22;38243;53.212;6.574;2022-09-09T02:43:11;20.00;99.90
52295;DHT22;38243;53.212;6.574;2022-09-09T02:45:40;20.00;99.90
52295;DHT22;38243;53.212;6.574;2022-09-09T02:50:55;19.90;99.90
52295;DHT22;38243;53.212;6.574;2022-09-09T02:53:24;20.00;99.90
52295;DHT22;38243;53.212;6.574;2022-09-09T02:58:17;19.90;99.90
52295;DHT22;38243;53.212;6.574;2022-09-09T03:00:43;19.90;99.90
52295;DHT22;38243;53.212;6.574;2022-09-09T03:03:10;19.90;99.90
52295;DHT22;38243;53.212;6.574;2022-09-09T03:05:36;19.90;99.90
52295;DHT22;38243;53.212;6.574;2022-09-09T03:08:02;19.90;99.90
52295;DHT22;38243;53.212;6.574;2022-09-09T03:10:28;19.90;99.90
52295;DHT22;38243;53.212;6.574;2022-09-09T03:12:54;19.90;99.90
52295;DHT22;38243;53.212;6.574;2022-09-09T03:15:20;19.90;99.90
52295;DHT22;38243;53.212;6.574;2022-09-09T03:17:46;19.90;99.90
52295;DHT22;38243;53.212;6.574;2022-09-09T03:20:12;19.90;99.90
52295;DHT22;38243;53.212;6.574;2022-09-09T03:22:38;19.90;99.90
52295;DHT22;38243;53.212;6.574;2022-09-09T03:25:04;19.90;99.90
52295;DHT22;38243;53.212;6.574;2022-09-09T03:27:29;19.80;99.90
52295;DHT22;38243;53.212;6.574;2022-09-09T03:29:55;19.80;99.90
52295;DHT22;38243;53.212;6.574;2022-09-09T03:32:21;19.80;99.90
52295;DHT22;38243;53.212;6.574;2022-09-09T03:34:48;19.80;99.90
52295;DHT22;38243;53.212;6.574;2022-09-09T03:37:18;19.80;99.90
52295;DHT22;38243;53.212;6.574;2022-09-09T03:39:44;19.80;99.90
52295;DHT22;38243;53.212;6.574;2022-09-09T03:42:12;19.80;99.90
52295;DHT22;38243;53.212;6.574;2022-09-09T03:44:39;19.80;99.90
52295;DHT22;38243;53.212;6.574;2022-09-09T03:47:05;19.90;99.90
52295;DHT22;38243;53.212;6.574;2022-09-09T03:49:32;19.90;99.90
52295;DHT22;38243;53.212;6.574;2022-09-09T03:51:57;19.80;99.90
52295;DHT22;38243;53.212;6.574;2022-09-09T03:54:24;19.80;99.90
52295;DHT22;38243;53.212;6.574;2022-09-09T03:56:50;19.90;99.90
52295;DHT22;38243;53.212;6.574;2022-09-09T03:59:16;19.90;99.90
52295;DHT22;38243;53.212;6.574;2022-09-09T04:01:41;19.90;99.90
52295;DHT22;38243;53.212;6.574;2022-09-09T04:04:07;19.80;99.90
52295;DHT22;38243;53.212;6.574;2022-09-09T04:06:34;19.80;99.90
52295;DHT22;38243;53.212;6.574;2022-09-09T04:09:00;19.90;99.90
52295;DHT22;38243;53.212;6.574;2022-09-09T04:11:28;19.80;99.90
52295;DHT22;38243;53.212;6.574;2022-09-09T04:13:53;19.90;99.90
52295;DHT22;38243;53.212;6.574;2022-09-09T04:16:19;19.80;99.90
52295;DHT22;38243;53.212;6.574;2022-09-09T04:18:45;19.90;99.90
52295;DHT22;38243;53.212;6.574;2022-09-09T04:21:11;19.80;99.90
52295;DHT22;38243;53.212;6.574;2022-09-09T04:23:37;19.80;99.90
52295;DHT22;38243;53.212;6.574;2022-09-09T04:26:03;19.80;99.90
52295;DHT22;38243;53.212;6.574;2022-09-09T04:28:30;19.80;99.90
52295;DHT22;38243;53.212;6.574;2022-09-09T04:30:56;19.80;99.90
52295;DHT22;38243;53.212;6.574;2022-09-09T04:33:24;19.80;99.90
52295;DHT22;38243;53.212;6.574;2022-09-09T04:35:53;19.80;99.90
52295;DHT22;38243;53.212;6.574;2022-09-09T04:38:20;20.20;99.90
52295;DHT22;38243;53.212;6.574;2022-09-09T04:40:48;19.80;99.90
52295;DHT22;38243;53.212;6.574;2022-09-09T04:43:14;19.80;99.90
52295;DHT22;38243;53.212;6.574;2022-09-09T04:45:41;19.80;99.90
52295;DHT22;38243;53.212;6.574;2022-09-09T04:48:07;19.80;99.90
52295;DHT22;38243;53.212;6.574;2022-09-09T04:50:32;19.80;99.90
52295;DHT22;38243;53.212;6.574;2022-09-09T04:53:02;19.80;99.90
52295;DHT22;38243;53.212;6.574;2022-09-09T04:55:28;19.80;99.90
52295;DHT22;38243;53.212;6.574;2022-09-09T04:57:54;19.80;99.90
52295;DHT22;38243;53.212;6.574;2022-09-09T05:00:19;19.80;99.90
52295;DHT22;38243;53.212;6.574;2022-09-09T05:02:45;19.80;99.90
52295;DHT22;38243;53.212;6.574;2022-09-09T05:05:11;19.80;99.90
52295;DHT22;38243;53.212;6.574;2022-09-09T05:07:37;19.80;99.90
52295;DHT22;38243;53.212;6.574;2022-09-09T05:10:03;19.80;99.90
52295;DHT22;38243;53.212;6.574;2022-09-09T05:12:30;19.80;99.90
52295;DHT22;38243;53.212;6.574;2022-09-09T05:14:56;19.80;99.90
52295;DHT22;38243;53.212;6.574;2022-09-09T05:17:22;19.80;99.90
52295;DHT22;38243;53.212;6.574;2022-09-09T05:19:47;19.80;99.90
52295;DHT22;38243;53.212;6.574;2022-09-09T05:22:23;19.80;99.90
52295;DHT22;38243;53.212;6.574;2022-09-09T05:24:51;19.80;99.90
52295;DHT22;38243;53.212;6.574;2022-09-09T05:27:17;19.80;99.90
52295;DHT22;38243;53.212;6.574;2022-09-09T05:29:45;19.80;99.90
52295;DHT22;38243;53.212;6.574;2022-09-09T05:32:10;19.80;99.90
52295;DHT22;38243;53.212;6.574;2022-09-09T05:34:36;19.80;99.90
52295;DHT22;38243;53.212;6.574;2022-09-09T05:37:03;19.70;99.90
52295;DHT22;38243;53.212;6.574;2022-09-09T05:39:29;19.80;99.90
52295;DHT22;38243;53.212;6.574;2022-09-09T05:41:55;19.70;99.90
52295;DHT22;38243;53.212;6.574;2022-09-09T05:44:21;19.70;99.90
52295;DHT22;38243;53.212;6.574;2022-09-09T05:46:49;19.30;99.90
52295;DHT22;38243;53.212;6.574;2022-09-09T05:49:15;18.90;99.90
52295;DHT22;38243;53.212;6.574;2022-09-09T05:51:41;18.50;99.90
52295;DHT22;38243;53.212;6.574;2022-09-09T05:54:08;18.40;99.90
52295;DHT22;38243;53.212;6.574;2022-09-09T05:56:34;18.30;99.90
52295;DHT22;38243;53.212;6.574;2022-09-09T05:58:59;17.90;99.90
52295;DHT22;38243;53.212;6.574;2022-09-09T06:01:27;17.40;99.90
52295;DHT22;38243;53.212;6.574;2022-09-09T06:03:53;17.30;99.90
52295;DHT22;38243;53.212;6.574;2022-09-09T06:06:19;17.30;99.90
52295;DHT22;38243;53.212;6.574;2022-09-09T06:08:50;17.10;99.90
52295;DHT22;38243;53.212;6.574;2022-09-09T06:11:21;16.60;99.90
52295;DHT22;38243;53.212;6.574;2022-09-09T06:13:48;17.40;99.90
52295;DHT22;38243;53.212;6.574;2022-09-09T06:16:16;16.50;99.90
52295;DHT22;38243;53.212;6.574;2022-09-09T06:18:45;16.30;99.90
52295;DHT22;38243;53.212;6.574;2022-09-09T06:21:18;16.20;99.90
52295;DHT22;38243;53.212;6.574;2022-09-09T06:23:51;15.90;99.90
52295;DHT22;38243;53.212;6.574;2022-09-09T06:26:21;15.90;99.90
52295;DHT22;38243;53.212;6.574;2022-09-09T06:28:59;15.80;99.90
52295;DHT22;38243;53.212;6.574;2022-09-09T06:31:28;15.30;99.90
52295;DHT22;38243;53.212;6.574;2022-09-09T06:34:00;15.90;99.90
52295;DHT22;38243;53.212;6.574;2022-09-09T06:36:34;16.00;99.90
52295;DHT22;38243;53.212;6.574;2022-09-09T06:39:20;15.10;99.90
52295;DHT22;38243;53.212;6.574;2022-09-09T06:41:49;15.80;99.90
52295;DHT22;38243;53.212;6.574;2022-09-09T06:44:18;15.90;99.90
52295;DHT22;38243;53.212;6.574;2022-09-09T06:46:44;15.90;99.90
52295;DHT22;38243;53.212;6.574;2022-09-09T06:49:13;15.80;99.90
52295;DHT22;38243;53.212;6.574;2022-09-09T06:51:39;15.90;99.90
52295;DHT22;38243;53.212;6.574;2022-09-09T06:54:14;15.80;99.90
52295;DHT22;38243;53.212;6.574;2022-09-09T06:56:41;15.90;99.90
52295;DHT22;38243;53.212;6.574;2022-09-09T06:59:08;16.10;99.90
52295;DHT22;38243;53.212;6.574;2022-09-09T07:01:38;16.00;99.90
52295;DHT22;38243;53.212;6.574;2022-09-09T07:04:06;15.90;99.90
52295;DHT22;38243;53.212;6.574;2022-09-09T07:06:35;15.90;99.90
52295;DHT22;38243;53.212;6.574;2022-09-09T07:09:05;15.90;99.90
52295;DHT22;38243;53.212;6.574;2022-09-09T07:11:33;16.00;99.90
52295;DHT22;38243;53.212;6.574;2022-09-09T07:17:22;16.00;99.90
52295;DHT22;38243;53.212;6.574;2022-09-09T07:22:55;15.90;99.90
52295;DHT22;38243;53.212;6.574;2022-09-09T07:25:35;15.10;99.90
52295;DHT22;38243;53.212;6.574;2022-09-09T07:28:09;14.70;99.90
52295;DHT22;38243;53.212;6.574;2022-09-09T07:30:35;16.30;99.90
52295;DHT22;38243;53.212;6.574;2022-09-09T07:33:14;15.70;99.90
52295;DHT22;38243;53.212;6.574;2022-09-09T07:36:04;16.10;99.90
52295;DHT22;38243;53.212;6.574;2022-09-09T07:38:39;16.60;99.90
52295;DHT22;38243;53.212;6.574;2022-09-09T07:41:06;16.20;99.90
52295;DHT22;38243;53.212;6.574;2022-09-09T07:43:43;16.00;99.90
52295;DHT22;38243;53.212;6.574;2022-09-09T07:46:14;16.40;99.90
52295;DHT22;38243;53.212;6.574;2022-09-09T07:48:54;16.10;99.90
52295;DHT22;38243;53.212;6.574;2022-09-09T07:51:39;16.50;99.90
52295;DHT22;38243;53.212;6.574;2022-09-09T07:57:16;16.70;99.90
52295;DHT22;38243;53.212;6.574;2022-09-09T07:59:54;16.80;99.90
52295;DHT22;38243;53.212;6.574;2022-09-09T08:02:24;16.60;99.90
52295;DHT22;38243;53.212;6.574;2022-09-09T08:04:56;16.70;99.90
52295;DHT22;38243;53.212;6.574;2022-09-09T08:07:27;16.70;99.90
52295;DHT22;38243;53.212;6.574;2022-09-09T08:09:57;16.70;99.90
52295;DHT22;38243;53.212;6.574;2022-09-09T08:12:23;17.00;99.90
52295;DHT22;38243;53.212;6.574;2022-09-09T08:14:51;17.00;99.90
52295;DHT22;38243;53.212;6.574;2022-09-09T08:17:17;17.10;99.90
52295;DHT22;38243;53.212;6.574;2022-09-09T08:20:00;16.80;99.90
52295;DHT22;38243;53.212;6.574;2022-09-09T08:22:48;17.60;99.90
52295;DHT22;38243;53.212;6.574;2022-09-09T08:25:28;18.10;99.90
52295;DHT22;38243;53.212;6.574;2022-09-09T08:28:11;17.80;99.90
52295;DHT22;38243;53.212;6.574;2022-09-09T08:33:59;17.20;99.90
52295;DHT22;38243;53.212;6.574;2022-09-09T08:36:28;18.80;99.90
52295;DHT22;38243;53.212;6.574;2022-09-09T08:38:55;18.80;99.90
52295;DHT22;38243;53.212;6.574;2022-09-09T08:51:56;18.00;99.90
52295;DHT22;38243;53.212;6.574;2022-09-09T08:54:25;18.90;99.90
52295;DHT22;38243;53.212;6.574;2022-09-09T08:56:56;18.70;99.90
52295;DHT22;38243;53.212;6.574;2022-09-09T08:59:22;18.50;99.90
52295;DHT22;38243;53.212;6.574;2022-09-09T09:01:51;18.60;99.90
52295;DHT22;38243;53.212;6.574;2022-09-09T09:12:32;17.70;99.90
52295;DHT22;38243;53.212;6.574;2022-09-09T09:15:00;18.40;99.90
52295;DHT22;38243;53.212;6.574;2022-09-09T09:17:27;18.50;99.90
52295;DHT22;38243;53.212;6.574;2022-09-09T09:19:56;18.40;99.90
52295;DHT22;38243;53.212;6.574;2022-09-09T09:27:37;18.50;99.90
52295;DHT22;38243;53.212;6.574;2022-09-09T09:30:23;18.60;99.90
52295;DHT22;38243;53.212;6.574;2022-09-09T09:35:16;18.70;99.90
52295;DHT22;38243;53.212;6.574;2022-09-09T09:37:45;18.90;99.90
52295;DHT22;38243;53.212;6.574;2022-09-09T09:40:31;19.80;99.90
52295;DHT22;38243;53.212;6.574;2022-09-09T09:43:02;19.70;99.90
52295;DHT22;38243;53.212;6.574;2022-09-09T09:45:35;19.70;99.90
52295;DHT22;38243;53.212;6.574;2022-09-09T09:48:15;18.70;99.90
52295;DHT22;38243;53.212;6.574;2022-09-09T09:56:03;19.60;99.90
52295;DHT22;38243;53.212;6.574;2022-09-09T09:58:51;20.20;99.90
52295;DHT22;38243;53.212;6.574;2022-09-09T10:03:59;19.90;99.90
52295;DHT22;38243;53.212;6.574;2022-09-09T10:06:36;19.60;99.90
52295;DHT22;38243;53.212;6.574;2022-09-09T10:09:04;19.30;99.90
52295;DHT22;38243;53.212;6.574;2022-09-09T10:11:40;19.10;99.90
52295;DHT22;38243;53.212;6.574;2022-09-09T10:14:16;19.10;99.90
52295;DHT22;38243;53.212;6.574;2022-09-09T10:19:40;19.60;99.90
52295;DHT22;38243;53.212;6.574;2022-09-09T10:27:21;18.90;99.90
52295;DHT22;38243;53.212;6.574;2022-09-09T10:30:04;18.80;99.90
52295;DHT22;38243;53.212;6.574;2022-09-09T10:32:38;18.80;99.90
52295;DHT22;38243;53.212;6.574;2022-09-09T10:40:48;18.60;99.90
52295;DHT22;38243;53.212;6.574;2022-09-09T10:49:12;19.00;99.90
52295;DHT22;38243;53.212;6.574;2022-09-09T10:56:49;19.00;99.90
52295;DHT22;38243;53.212;6.574;2022-09-09T10:59:31;18.40;99.90
52295;DHT22;38243;53.212;6.574;2022-09-09T11:02:24;19.00;99.90
52295;DHT22;38243;53.212;6.574;2022-09-09T11:04:55;19.80;99.90
52295;DHT22;38243;53.212;6.574;2022-09-09T11:07:41;20.70;99.90
52295;DHT22;38243;53.212;6.574;2022-09-09T11:12:53;20.60;99.90
52295;DHT22;38243;53.212;6.574;2022-09-09T11:15:29;20.30;99.90
52295;DHT22;38243;53.212;6.574;2022-09-09T11:17:56;20.40;99.90
52295;DHT22;38243;53.212;6.574;2022-09-09T11:20:24;20.40;99.90
52295;DHT22;38243;53.212;6.574;2022-09-09T11:22:52;20.60;99.90
52295;DHT22;38243;53.212;6.574;2022-09-09T11:42:22;22.70;97.20
52295;DHT22;38243;53.212;6.574;2022-09-09T11:44:57;22.80;96.20
52295;DHT22;38243;53.212;6.574;2022-09-09T11:47:50;23.00;96.10
52295;DHT22;38243;53.212;6.574;2022-09-09T11:52:44;23.30;94.30
52295;DHT22;38243;53.212;6.574;2022-09-09T11:58:28;22.10;97.70
52295;DHT22;38243;53.212;6.574;2022-09-09T12:00:47;22.00;99.90
52295;DHT22;38243;53.212;6.574;2022-09-09T12:05:57;22.20;99.80
52295;DHT22;38243;53.212;6.574;2022-09-09T12:08:27;22.40;99.60
52295;DHT22;38243;53.212;6.574;2022-09-09T12:10:56;22.40;99.20
52295;DHT22;38243;53.212;6.574;2022-09-09T12:13:26;22.20;99.20
52295;DHT22;38243;53.212;6.574;2022-09-09T12:15:53;21.90;99.50
52295;DHT22;38243;53.212;6.574;2022-09-09T12:18:23;21.80;99.40
52295;DHT22;38243;53.212;6.574;2022-09-09T12:21:03;21.50;99.80
52295;DHT22;38243;53.212;6.574;2022-09-09T12:23:36;21.20;99.90
52295;DHT22;38243;53.212;6.574;2022-09-09T12:31:39;21.10;99.90
52295;DHT22;38243;53.212;6.574;2022-09-09T12:34:11;20.90;99.90
52295;DHT22;38243;53.212;6.574;2022-09-09T12:36:37;20.80;99.90
52295;DHT22;38243;53.212;6.574;2022-09-09T12:39:15;20.70;99.90
52295;DHT22;38243;53.212;6.574;2022-09-09T12:41:41;20.70;99.90
52295;DHT22;38243;53.212;6.574;2022-09-09T12:44:08;20.70;99.90
52295;DHT22;38243;53.212;6.574;2022-09-09T12:46:39;20.70;99.90
52295;DHT22;38243;53.212;6.574;2022-09-09T12:49:20;20.80;99.90
52295;DHT22;38243;53.212;6.574;2022-09-09T12:51:50;20.80;99.90
52295;DHT22;38243;53.212;6.574;2022-09-09T12:54:15;20.90;99.90
52295;DHT22;38243;53.212;6.574;2022-09-09T12:56:44;20.80;99.90
52295;DHT22;38243;53.212;6.574;2022-09-09T12:59:17;20.80;99.90
52295;DHT22;38243;53.212;6.574;2022-09-09T13:01:54;20.80;99.90
52295;DHT22;38243;53.212;6.574;2022-09-09T13:04:21;21.10;99.90
52295;DHT22;38243;53.212;6.574;2022-09-09T13:06:47;21.20;99.90
52295;DHT22;38243;53.212;6.574;2022-09-09T13:09:14;21.60;99.90
52295;DHT22;38243;53.212;6.574;2022-09-09T13:11:50;22.40;99.60
52295;DHT22;38243;53.212;6.574;2022-09-09T13:14:38;23.00;97.40
52295;DHT22;38243;53.212;6.574;2022-09-09T13:17:03;23.20;94.90
52295;DHT22;38243;53.212;6.574;2022-09-09T13:19:33;23.10;94.60
52295;DHT22;38243;53.212;6.574;2022-09-09T13:22:10;22.90;94.90
52295;DHT22;38243;53.212;6.574;2022-09-09T13:24:37;22.40;95.60
52295;DHT22;38243;53.212;6.574;2022-09-09T13:27:04;22.30;96.90
52295;DHT22;38243;53.212;6.574;2022-09-09T13:29:31;22.50;97.40
52295;DHT22;38243;53.212;6.574;2022-09-09T13:32:06;22.80;96.30
52295;DHT22;38243;53.212;6.574;2022-09-09T13:34:38;22.50;96.90
52295;DHT22;38243;53.212;6.574;2022-09-09T13:37:05;22.20;96.90
52295;DHT22;38243;53.212;6.574;2022-09-09T13:39:35;22.00;97.90
52295;DHT22;38243;53.212;6.574;2022-09-09T13:42:01;22.00;97.80
52295;DHT22;38243;53.212;6.574;2022-09-09T13:44:29;21.90;97.60
52295;DHT22;38243;53.212;6.574;2022-09-09T13:47:00;21.70;98.50
52295;DHT22;38243;53.212;6.574;2022-09-09T13:49:27;21.40;99.50
52295;DHT22;38243;53.212;6.574;2022-09-09T13:52:03;21.30;99.90
52295;DHT22;38243;53.212;6.574;2022-09-09T13:54:30;21.10;99.90
52295;DHT22;38243;53.212;6.574;2022-09-09T13:56:58;21.00;99.90
52295;DHT22;38243;53.212;6.574;2022-09-09T13:59:24;21.00;99.90
52295;DHT22;38243;53.212;6.574;2022-09-09T14:01:51;21.10;99.90
52295;DHT22;38243;53.212;6.574;2022-09-09T14:04:17;21.60;99.90
52295;DHT22;38243;53.212;6.574;2022-09-09T14:06:44;22.00;98.10
52295;DHT22;38243;53.212;6.574;2022-09-09T14:09:12;22.20;97.00
52295;DHT22;38243;53.212;6.574;2022-09-09T14:11:38;22.60;95.10
52295;DHT22;38243;53.212;6.574;2022-09-09T14:14:03;22.30;95.70
52295;DHT22;38243;53.212;6.574;2022-09-09T14:16:30;22.20;96.00
52295;DHT22;38243;53.212;6.574;2022-09-09T14:18:56;21.90;97.00
52295;DHT22;38243;53.212;6.574;2022-09-09T14:21:22;21.70;97.60
52295;DHT22;38243;53.212;6.574;2022-09-09T14:23:48;21.30;98.50
52295;DHT22;38243;53.212;6.574;2022-09-09T14:26:14;21.30;99.00
52295;DHT22;38243;53.212;6.574;2022-09-09T14:28:40;21.60;99.90
52295;DHT22;38243;53.212;6.574;2022-09-09T14:31:06;22.00;99.90
52295;DHT22;38243;53.212;6.574;2022-09-09T14:33:35;22.20;98.30
52295;DHT22;38243;53.212;6.574;2022-09-09T14:36:02;22.10;98.40
52295;DHT22;38243;53.212;6.574;2022-09-09T14:38:29;21.90;98.80
52295;DHT22;38243;53.212;6.574;2022-09-09T14:40:54;21.80;99.90
52295;DHT22;38243;53.212;6.574;2022-09-09T14:43:21;21.40;99.90
52295;DHT22;38243;53.212;6.574;2022-09-09T14:45:47;20.90;99.90
52295;DHT22;38243;53.212;6.574;2022-09-09T14:48:16;20.80;99.90
52295;DHT22;38243;53.212;6.574;2022-09-09T14:50:42;20.50;99.90
52295;DHT22;38243;53.212;6.574;2022-09-09T14:53:08;20.20;99.90
52295;DHT22;38243;53.212;6.574;2022-09-09T14:55:35;19.90;99.90
52295;DHT22;38243;53.212;6.574;2022-09-09T14:58:01;19.90;99.90
52295;DHT22;38243;53.212;6.574;2022-09-09T15:00:27;20.10;99.90
52295;DHT22;38243;53.212;6.574;2022-09-09T15:02:53;20.20;99.90
52295;DHT22;38243;53.212;6.574;2022-09-09T15:05:19;20.00;99.90
52295;DHT22;38243;53.212;6.574;2022-09-09T15:07:44;20.20;99.90
52295;DHT22;38243;53.212;6.574;2022-09-09T15:10:10;20.30;99.90
52295;DHT22;38243;53.212;6.574;2022-09-09T15:12:36;20.60;99.90
52295;DHT22;38243;53.212;6.574;2022-09-09T15:15:04;20.40;99.90
52295;DHT22;38243;53.212;6.574;2022-09-09T15:17:29;20.40;99.90
52295;DHT22;38243;53.212;6.574;2022-09-09T15:19:55;20.60;99.90
52295;DHT22;38243;53.212;6.574;2022-09-09T15:22:21;20.40;99.90
52295;DHT22;38243;53.212;6.574;2022-09-09T15:24:46;20.30;99.90
52295;DHT22;38243;53.212;6.574;2022-09-09T15:27:12;20.20;99.90
52295;DHT22;38243;53.212;6.574;2022-09-09T15:29:40;20.10;99.90
52295;DHT22;38243;53.212;6.574;2022-09-09T15:32:06;20.00;99.90
52295;DHT22;38243;53.212;6.574;2022-09-09T15:34:32;20.00;99.90
52295;DHT22;38243;53.212;6.574;2022-09-09T15:37:00;19.90;99.90
52295;DHT22;38243;53.212;6.574;2022-09-09T15:39:26;19.80;99.90
52295;DHT22;38243;53.212;6.574;2022-09-09T15:41:52;19.80;99.90
52295;DHT22;38243;53.212;6.574;2022-09-09T15:44:18;20.00;99.90
52295;DHT22;38243;53.212;6.574;2022-09-09T15:46:45;20.00;99.90
52295;DHT22;38243;53.212;6.574;2022-09-09T15:49:15;19.90;99.90
52295;DHT22;38243;53.212;6.574;2022-09-09T15:51:41;20.00;99.90
52295;DHT22;38243;53.212;6.574;2022-09-09T15:54:08;20.00;99.90
52295;DHT22;38243;53.212;6.574;2022-09-09T15:56:33;19.90;99.90
52295;DHT22;38243;53.212;6.574;2022-09-09T15:59:00;19.90;99.90
52295;DHT22;38243;53.212;6.574;2022-09-09T16:01:27;19.70;99.90
52295;DHT22;38243;53.212;6.574;2022-09-09T16:03:53;19.70;99.90
52295;DHT22;38243;53.212;6.574;2022-09-09T16:06:22;19.60;99.90
52295;DHT22;38243;53.212;6.574;2022-09-09T16:08:49;19.50;99.90
52295;DHT22;38243;53.212;6.574;2022-09-09T16:11:22;19.50;99.90
52295;DHT22;38243;53.212;6.574;2022-09-09T16:13:49;19.40;99.90
52295;DHT22;38243;53.212;6.574;2022-09-09T16:16:16;19.40;99.90
52295;DHT22;38243;53.212;6.574;2022-09-09T16:18:43;19.40;99.90
52295;DHT22;38243;53.212;6.574;2022-09-09T16:21:29;19.40;99.90
52295;DHT22;38243;53.212;6.574;2022-09-09T16:23:56;19.40;99.90
52295;DHT22;38243;53.212;6.574;2022-09-09T16:26:22;19.40;99.90
52295;DHT22;38243;53.212;6.574;2022-09-09T16:28:48;19.30;99.90
52295;DHT22;38243;53.212;6.574;2022-09-09T16:31:19;19.30;99.90
52295;DHT22;38243;53.212;6.574;2022-09-09T16:33:45;19.30;99.90
52295;DHT22;38243;53.212;6.574;2022-09-09T16:36:12;19.30;99.90
52295;DHT22;38243;53.212;6.574;2022-09-09T16:38:39;19.20;99.90
52295;DHT22;38243;53.212;6.574;2022-09-09T16:41:05;19.30;99.90
52295;DHT22;38243;53.212;6.574;2022-09-09T16:43:32;19.30;99.90
52295;DHT22;38243;53.212;6.574;2022-09-09T16:45:57;19.30;99.90
52295;DHT22;38243;53.212;6.574;2022-09-09T16:48:26;19.20;99.90
52295;DHT22;38243;53.212;6.574;2022-09-09T16:50:52;19.10;99.90
52295;DHT22;38243;53.212;6.574;2022-09-09T16:53:18;19.00;99.90
52295;DHT22;38243;53.212;6.574;2022-09-09T16:55:43;18.90;99.90
52295;DHT22;38243;53.212;6.574;2022-09-09T16:58:12;18.90;99.90
52295;DHT22;38243;53.212;6.574;2022-09-09T17:00:38;18.80;99.90
52295;DHT22;38243;53.212;6.574;2022-09-09T17:03:04;18.80;99.90
52295;DHT22;38243;53.212;6.574;2022-09-09T17:05:29;18.80;99.90
52295;DHT22;38243;53.212;6.574;2022-09-09T17:07:55;18.60;99.90
52295;DHT22;38243;53.212;6.574;2022-09-09T17:10:23;18.60;99.90
52295;DHT22;38243;53.212;6.574;2022-09-09T17:12:49;18.60;99.90
52295;DHT22;38243;53.212;6.574;2022-09-09T17:15:15;18.50;99.90
52295;DHT22;38243;53.212;6.574;2022-09-09T17:17:41;18.40;99.90
52295;DHT22;38243;53.212;6.574;2022-09-09T17:20:10;18.30;99.90
52295;DHT22;38243;53.212;6.574;2022-09-09T17:22:36;18.30;99.90
52295;DHT22;38243;53.212;6.574;2022-09-09T17:25:02;18.10;99.90
52295;DHT22;38243;53.212;6.574;2022-09-09T17:27:28;18.00;99.90
52295;DHT22;38243;53.212;6.574;2022-09-09T17:29:57;18.00;99.90
52295;DHT22;38243;53.212;6.574;2022-09-09T17:32:22;17.90;99.90
52295;DHT22;38243;53.212;6.574;2022-09-09T17:34:50;17.90;99.90
52295;DHT22;38243;53.212;6.574;2022-09-09T17:37:16;17.90;99.90
52295;DHT22;38243;53.212;6.574;2022-09-09T17:39:41;17.90;99.90
52295;DHT22;38243;53.212;6.574;2022-09-09T17:42:08;17.90;99.90
52295;DHT22;38243;53.212;6.574;2022-09-09T17:44:33;17.90;99.90
52295;DHT22;38243;53.212;6.574;2022-09-09T17:46:59;17.80;99.90
52295;DHT22;38243;53.212;6.574;2022-09-09T17:49:25;18.10;99.90
52295;DHT22;38243;53.212;6.574;2022-09-09T17:51:51;18.00;99.90
52295;DHT22;38243;53.212;6.574;2022-09-09T17:54:18;18.00;99.90
52295;DHT22;38243;53.212;6.574;2022-09-09T17:56:44;18.00;99.90
52295;DHT22;38243;53.212;6.574;2022-09-09T17:59:13;18.00;99.90
52295;DHT22;38243;53.212;6.574;2022-09-09T18:01:40;17.90;99.90
52295;DHT22;38243;53.212;6.574;2022-09-09T18:04:10;17.90;99.90
52295;DHT22;38243;53.212;6.574;2022-09-09T18:06:42;17.80;99.90
52295;DHT22;38243;53.212;6.574;2022-09-09T18:09:10;17.80;99.90
52295;DHT22;38243;53.212;6.574;2022-09-09T18:11:38;17.90;99.90